sensor_id;sensor_type;location;lat;lon;timestamp;P1;durP1;ratioP1;P2;durP2;ratioP2
56122;SDS011;42426;46.104;19.656;2023-03-13T00:01:15;39.70;;;19.90;;
56122;SDS011;42426;46.104;19.656;2023-03-13T00:03:41;31.50;;;18.65;;
56122;SDS011;42426;46.104;19.656;2023-03-13T00:06:08;34.53;;;19.05;;
56122;SDS011;42426;46.104;19.656;2023-03-13T00:08:34;36.50;;;21.38;;
56122;SDS011;42426;46.104;19.656;2023-03-13T00:11:07;38.90;;;21.50;;
56122;SDS011;42426;46.104;19.656;2023-03-13T00:13:34;40.40;;;21.55;;
56122;SDS011;42426;46.104;19.656;2023-03-13T00:16:03;37.38;;;21.23;;
56122;SDS011;42426;46.104;19.656;2023-03-13T00:18:31;43.83;;;22.88;;
56122;SDS011;42426;46.104;19.656;2023-03-13T00:21:00;44.72;;;25.80;;
56122;SDS011;42426;46.104;19.656;2023-03-13T00:23:27;46.08;;;25.48;;
56122;SDS011;42426;46.104;19.656;2023-03-13T00:25:59;48.40;;;27.38;;
56122;SDS011;42426;46.104;19.656;2023-03-13T00:28:27;43.25;;;23.83;;
56122;SDS011;42426;46.104;19.656;2023-03-13T00:31:03;47.28;;;24.40;;
56122;SDS011;42426;46.104;19.656;2023-03-13T00:33:46;45.22;;;25.10;;
56122;SDS011;42426;46.104;19.656;2023-03-13T00:36:14;47.38;;;24.95;;
56122;SDS011;42426;46.104;19.656;2023-03-13T00:38:43;63.00;;;34.22;;
56122;SDS011;42426;46.104;19.656;2023-03-13T00:43:36;86.65;;;39.38;;
56122;SDS011;42426;46.104;19.656;2023-03-13T00:46:02;86.25;;;39.28;;
56122;SDS011;42426;46.104;19.656;2023-03-13T00:48:28;79.78;;;36.40;;
56122;SDS011;42426;46.104;19.656;2023-03-13T00:50:54;70.93;;;33.45;;
56122;SDS011;42426;46.104;19.656;2023-03-13T00:53:20;74.68;;;34.47;;
56122;SDS011;42426;46.104;19.656;2023-03-13T00:55:52;80.13;;;38.85;;
56122;SDS011;42426;46.104;19.656;2023-03-13T00:58:17;84.70;;;42.80;;
56122;SDS011;42426;46.104;19.656;2023-03-13T01:00:43;72.28;;;34.85;;
56122;SDS011;42426;46.104;19.656;2023-03-13T01:03:09;71.07;;;33.00;;
56122;SDS011;42426;46.104;19.656;2023-03-13T01:05:35;79.60;;;39.85;;
56122;SDS011;42426;46.104;19.656;2023-03-13T01:08:00;80.38;;;40.50;;
56122;SDS011;42426;46.104;19.656;2023-03-13T01:10:26;83.90;;;38.63;;
56122;SDS011;42426;46.104;19.656;2023-03-13T01:12:52;71.05;;;34.58;;
56122;SDS011;42426;46.104;19.656;2023-03-13T01:15:17;80.55;;;37.83;;
56122;SDS011;42426;46.104;19.656;2023-03-13T01:17:44;83.47;;;41.22;;
56122;SDS011;42426;46.104;19.656;2023-03-13T01:20:10;91.20;;;47.17;;
56122;SDS011;42426;46.104;19.656;2023-03-13T01:22:36;73.00;;;37.42;;
56122;SDS011;42426;46.104;19.656;2023-03-13T01:25:02;63.30;;;34.60;;
56122;SDS011;42426;46.104;19.656;2023-03-13T01:27:29;49.42;;;25.73;;
56122;SDS011;42426;46.104;19.656;2023-03-13T01:29:55;45.67;;;25.20;;
56122;SDS011;42426;46.104;19.656;2023-03-13T01:32:21;41.85;;;22.38;;
56122;SDS011;42426;46.104;19.656;2023-03-13T01:34:47;38.28;;;23.27;;
56122;SDS011;42426;46.104;19.656;2023-03-13T01:37:15;41.28;;;22.65;;
56122;SDS011;42426;46.104;19.656;2023-03-13T01:39:42;43.25;;;22.25;;
56122;SDS011;42426;46.104;19.656;2023-03-13T01:42:08;35.97;;;22.20;;
56122;SDS011;42426;46.104;19.656;2023-03-13T01:47:53;49.70;;;26.52;;
56122;SDS011;42426;46.104;19.656;2023-03-13T01:50:19;43.05;;;25.23;;
56122;SDS011;42426;46.104;19.656;2023-03-13T01:52:45;41.45;;;23.58;;
56122;SDS011;42426;46.104;19.656;2023-03-13T01:55:11;39.80;;;21.88;;
56122;SDS011;42426;46.104;19.656;2023-03-13T01:57:45;42.03;;;24.48;;
56122;SDS011;42426;46.104;19.656;2023-03-13T02:00:16;33.47;;;19.98;;
56122;SDS011;42426;46.104;19.656;2023-03-13T02:02:48;33.35;;;19.55;;
56122;SDS011;42426;46.104;19.656;2023-03-13T02:05:16;37.00;;;21.17;;
56122;SDS011;42426;46.104;19.656;2023-03-13T02:10:28;42.03;;;22.88;;
56122;SDS011;42426;46.104;19.656;2023-03-13T02:12:56;38.17;;;21.25;;
56122;SDS011;42426;46.104;19.656;2023-03-13T02:15:23;36.08;;;20.10;;
56122;SDS011;42426;46.104;19.656;2023-03-13T02:17:51;29.58;;;17.00;;
56122;SDS011;42426;46.104;19.656;2023-03-13T02:20:19;27.20;;;16.10;;
56122;SDS011;42426;46.104;19.656;2023-03-13T02:23:21;24.73;;;13.65;;
56122;SDS011;42426;46.104;19.656;2023-03-13T02:30:48;26.85;;;15.35;;
56122;SDS011;42426;46.104;19.656;2023-03-13T02:33:18;26.17;;;14.25;;
56122;SDS011;42426;46.104;19.656;2023-03-13T02:35:45;24.13;;;13.82;;
56122;SDS011;42426;46.104;19.656;2023-03-13T02:38:13;24.55;;;14.65;;
56122;SDS011;42426;46.104;19.656;2023-03-13T02:40:44;25.98;;;13.40;;
56122;SDS011;42426;46.104;19.656;2023-03-13T02:43:14;33.13;;;17.05;;
56122;SDS011;42426;46.104;19.656;2023-03-13T02:48:38;30.05;;;16.77;;
56122;SDS011;42426;46.104;19.656;2023-03-13T02:51:48;29.08;;;17.00;;
56122;SDS011;42426;46.104;19.656;2023-03-13T02:53:56;33.20;;;17.85;;
56122;SDS011;42426;46.104;19.656;2023-03-13T02:56:24;31.50;;;17.80;;
56122;SDS011;42426;46.104;19.656;2023-03-13T02:58:52;28.38;;;18.08;;
56122;SDS011;42426;46.104;19.656;2023-03-13T03:01:17;26.17;;;16.52;;
56122;SDS011;42426;46.104;19.656;2023-03-13T03:03:43;22.65;;;14.80;;
56122;SDS011;42426;46.104;19.656;2023-03-13T03:06:10;24.05;;;14.88;;
56122;SDS011;42426;46.104;19.656;2023-03-13T03:08:35;23.13;;;14.82;;
56122;SDS011;42426;46.104;19.656;2023-03-13T03:11:05;33.17;;;15.68;;
56122;SDS011;42426;46.104;19.656;2023-03-13T03:13:31;28.33;;;15.85;;
56122;SDS011;42426;46.104;19.656;2023-03-13T03:15:57;23.70;;;15.27;;
56122;SDS011;42426;46.104;19.656;2023-03-13T03:18:24;25.80;;;16.02;;
56122;SDS011;42426;46.104;19.656;2023-03-13T03:20:50;23.63;;;14.65;;
56122;SDS011;42426;46.104;19.656;2023-03-13T03:23:16;24.08;;;15.00;;
56122;SDS011;42426;46.104;19.656;2023-03-13T03:25:41;24.02;;;13.35;;
56122;SDS011;42426;46.104;19.656;2023-03-13T03:28:07;26.63;;;14.18;;
56122;SDS011;42426;46.104;19.656;2023-03-13T03:30:34;25.58;;;15.05;;
56122;SDS011;42426;46.104;19.656;2023-03-13T03:33:01;21.33;;;13.75;;
56122;SDS011;42426;46.104;19.656;2023-03-13T03:35:28;27.65;;;15.23;;
56122;SDS011;42426;46.104;19.656;2023-03-13T03:37:53;23.67;;;13.85;;
56122;SDS011;42426;46.104;19.656;2023-03-13T03:40:19;25.45;;;13.63;;
56122;SDS011;42426;46.104;19.656;2023-03-13T03:42:45;32.75;;;16.20;;
56122;SDS011;42426;46.104;19.656;2023-03-13T03:45:11;27.23;;;15.18;;
56122;SDS011;42426;46.104;19.656;2023-03-13T03:47:36;21.15;;;14.57;;
56122;SDS011;42426;46.104;19.656;2023-03-13T03:50:02;25.83;;;13.88;;
56122;SDS011;42426;46.104;19.656;2023-03-13T03:52:28;24.10;;;14.68;;
56122;SDS011;42426;46.104;19.656;2023-03-13T03:54:54;21.10;;;13.30;;
56122;SDS011;42426;46.104;19.656;2023-03-13T03:57:20;19.65;;;12.90;;
56122;SDS011;42426;46.104;19.656;2023-03-13T03:59:45;20.40;;;12.90;;
56122;SDS011;42426;46.104;19.656;2023-03-13T04:02:11;19.38;;;13.68;;
56122;SDS011;42426;46.104;19.656;2023-03-13T04:04:37;21.15;;;13.32;;
56122;SDS011;42426;46.104;19.656;2023-03-13T04:07:02;27.17;;;14.45;;
56122;SDS011;42426;46.104;19.656;2023-03-13T04:09:28;34.90;;;17.08;;
56122;SDS011;42426;46.104;19.656;2023-03-13T04:11:54;43.22;;;22.23;;
56122;SDS011;42426;46.104;19.656;2023-03-13T04:14:19;33.97;;;19.60;;
56122;SDS011;42426;46.104;19.656;2023-03-13T04:16:45;46.95;;;23.98;;
56122;SDS011;42426;46.104;19.656;2023-03-13T04:19:11;39.40;;;20.08;;
56122;SDS011;42426;46.104;19.656;2023-03-13T04:21:36;32.85;;;18.75;;
56122;SDS011;42426;46.104;19.656;2023-03-13T04:24:03;38.92;;;22.00;;
56122;SDS011;42426;46.104;19.656;2023-03-13T04:26:29;34.65;;;22.20;;
56122;SDS011;42426;46.104;19.656;2023-03-13T04:28:55;41.47;;;23.33;;
56122;SDS011;42426;46.104;19.656;2023-03-13T04:31:20;38.10;;;20.00;;
56122;SDS011;42426;46.104;19.656;2023-03-13T04:33:46;46.20;;;26.58;;
56122;SDS011;42426;46.104;19.656;2023-03-13T04:36:11;65.95;;;36.53;;
56122;SDS011;42426;46.104;19.656;2023-03-13T04:38:37;39.38;;;21.83;;
56122;SDS011;42426;46.104;19.656;2023-03-13T04:41:03;33.75;;;19.38;;
56122;SDS011;42426;46.104;19.656;2023-03-13T04:43:28;27.60;;;15.43;;
56122;SDS011;42426;46.104;19.656;2023-03-13T04:45:54;24.38;;;16.15;;
56122;SDS011;42426;46.104;19.656;2023-03-13T04:48:20;22.92;;;13.48;;
56122;SDS011;42426;46.104;19.656;2023-03-13T04:50:46;24.27;;;15.10;;
56122;SDS011;42426;46.104;19.656;2023-03-13T04:53:13;23.50;;;13.75;;
56122;SDS011;42426;46.104;19.656;2023-03-13T04:55:38;25.45;;;13.93;;
56122;SDS011;42426;46.104;19.656;2023-03-13T04:58:04;23.85;;;13.40;;
56122;SDS011;42426;46.104;19.656;2023-03-13T05:00:30;20.20;;;12.35;;
56122;SDS011;42426;46.104;19.656;2023-03-13T05:02:56;24.88;;;13.05;;
56122;SDS011;42426;46.104;19.656;2023-03-13T05:05:21;19.95;;;12.98;;
56122;SDS011;42426;46.104;19.656;2023-03-13T05:07:47;23.27;;;12.43;;
56122;SDS011;42426;46.104;19.656;2023-03-13T05:10:13;19.63;;;12.13;;
56122;SDS011;42426;46.104;19.656;2023-03-13T05:12:38;23.20;;;14.43;;
56122;SDS011;42426;46.104;19.656;2023-03-13T05:15:04;23.35;;;14.02;;
56122;SDS011;42426;46.104;19.656;2023-03-13T05:17:30;27.73;;;15.77;;
56122;SDS011;42426;46.104;19.656;2023-03-13T05:19:56;29.88;;;16.83;;
56122;SDS011;42426;46.104;19.656;2023-03-13T05:22:21;31.05;;;19.67;;
56122;SDS011;42426;46.104;19.656;2023-03-13T05:24:47;32.58;;;17.73;;
56122;SDS011;42426;46.104;19.656;2023-03-13T05:27:12;25.48;;;17.02;;
56122;SDS011;42426;46.104;19.656;2023-03-13T05:29:38;34.45;;;19.52;;
56122;SDS011;42426;46.104;19.656;2023-03-13T05:32:04;35.05;;;19.08;;
56122;SDS011;42426;46.104;19.656;2023-03-13T05:34:30;40.78;;;22.30;;
56122;SDS011;42426;46.104;19.656;2023-03-13T05:36:55;38.83;;;23.13;;
56122;SDS011;42426;46.104;19.656;2023-03-13T05:39:21;36.00;;;21.80;;
56122;SDS011;42426;46.104;19.656;2023-03-13T05:41:47;35.10;;;18.00;;
56122;SDS011;42426;46.104;19.656;2023-03-13T05:44:12;32.40;;;18.40;;
56122;SDS011;42426;46.104;19.656;2023-03-13T05:46:38;37.50;;;18.42;;
56122;SDS011;42426;46.104;19.656;2023-03-13T05:49:03;37.88;;;18.92;;
56122;SDS011;42426;46.104;19.656;2023-03-13T05:51:29;44.05;;;24.52;;
56122;SDS011;42426;46.104;19.656;2023-03-13T05:53:55;54.25;;;27.65;;
56122;SDS011;42426;46.104;19.656;2023-03-13T05:56:20;49.85;;;25.98;;
56122;SDS011;42426;46.104;19.656;2023-03-13T05:58:46;40.80;;;23.15;;
56122;SDS011;42426;46.104;19.656;2023-03-13T06:01:12;36.75;;;22.48;;
56122;SDS011;42426;46.104;19.656;2023-03-13T06:03:38;37.85;;;21.80;;
56122;SDS011;42426;46.104;19.656;2023-03-13T06:06:04;40.75;;;23.70;;
56122;SDS011;42426;46.104;19.656;2023-03-13T06:08:29;35.53;;;21.60;;
56122;SDS011;42426;46.104;19.656;2023-03-13T06:11:00;48.88;;;27.25;;
56122;SDS011;42426;46.104;19.656;2023-03-13T06:13:26;47.78;;;25.77;;
56122;SDS011;42426;46.104;19.656;2023-03-13T06:15:53;40.08;;;21.88;;
56122;SDS011;42426;46.104;19.656;2023-03-13T06:18:20;39.33;;;20.63;;
56122;SDS011;42426;46.104;19.656;2023-03-13T06:20:47;35.83;;;20.45;;
56122;SDS011;42426;46.104;19.656;2023-03-13T06:23:13;33.53;;;18.13;;
56122;SDS011;42426;46.104;19.656;2023-03-13T06:25:39;30.67;;;19.35;;
56122;SDS011;42426;46.104;19.656;2023-03-13T06:28:05;30.80;;;15.80;;
56122;SDS011;42426;46.104;19.656;2023-03-13T06:30:30;30.98;;;18.02;;
56122;SDS011;42426;46.104;19.656;2023-03-13T06:32:56;27.20;;;14.55;;
56122;SDS011;42426;46.104;19.656;2023-03-13T06:35:23;26.50;;;15.18;;
56122;SDS011;42426;46.104;19.656;2023-03-13T06:37:48;21.30;;;12.82;;
56122;SDS011;42426;46.104;19.656;2023-03-13T06:40:14;24.63;;;13.30;;
56122;SDS011;42426;46.104;19.656;2023-03-13T06:42:40;21.60;;;12.93;;
56122;SDS011;42426;46.104;19.656;2023-03-13T06:45:06;18.38;;;12.65;;
56122;SDS011;42426;46.104;19.656;2023-03-13T06:47:32;19.83;;;13.15;;
56122;SDS011;42426;46.104;19.656;2023-03-13T06:49:58;23.92;;;13.98;;
56122;SDS011;42426;46.104;19.656;2023-03-13T06:52:23;24.05;;;14.15;;
56122;SDS011;42426;46.104;19.656;2023-03-13T06:54:49;28.63;;;16.05;;
56122;SDS011;42426;46.104;19.656;2023-03-13T06:57:15;27.55;;;16.38;;
56122;SDS011;42426;46.104;19.656;2023-03-13T06:59:41;37.60;;;20.65;;
56122;SDS011;42426;46.104;19.656;2023-03-13T07:02:08;41.63;;;24.50;;
56122;SDS011;42426;46.104;19.656;2023-03-13T07:04:36;41.40;;;26.85;;
56122;SDS011;42426;46.104;19.656;2023-03-13T07:07:01;42.78;;;26.88;;
56122;SDS011;42426;46.104;19.656;2023-03-13T07:09:27;35.20;;;20.65;;
56122;SDS011;42426;46.104;19.656;2023-03-13T07:11:53;28.30;;;18.55;;
56122;SDS011;42426;46.104;19.656;2023-03-13T07:14:19;60.20;;;36.28;;
56122;SDS011;42426;46.104;19.656;2023-03-13T07:16:45;36.28;;;22.98;;
56122;SDS011;42426;46.104;19.656;2023-03-13T07:19:11;38.25;;;25.00;;
56122;SDS011;42426;46.104;19.656;2023-03-13T07:21:37;52.58;;;31.25;;
56122;SDS011;42426;46.104;19.656;2023-03-13T07:24:02;43.15;;;27.08;;
56122;SDS011;42426;46.104;19.656;2023-03-13T07:26:28;38.90;;;23.58;;
56122;SDS011;42426;46.104;19.656;2023-03-13T07:28:54;38.75;;;23.90;;
56122;SDS011;42426;46.104;19.656;2023-03-13T07:31:20;56.90;;;33.80;;
56122;SDS011;42426;46.104;19.656;2023-03-13T07:33:47;45.67;;;25.77;;
56122;SDS011;42426;46.104;19.656;2023-03-13T07:36:16;45.15;;;25.25;;
56122;SDS011;42426;46.104;19.656;2023-03-13T07:38:42;55.05;;;32.92;;
56122;SDS011;42426;46.104;19.656;2023-03-13T07:41:11;37.53;;;22.35;;
56122;SDS011;42426;46.104;19.656;2023-03-13T07:43:37;34.85;;;18.05;;
56122;SDS011;42426;46.104;19.656;2023-03-13T07:46:04;24.40;;;16.70;;
56122;SDS011;42426;46.104;19.656;2023-03-13T07:48:37;24.92;;;14.48;;
56122;SDS011;42426;46.104;19.656;2023-03-13T07:51:05;18.15;;;12.23;;
56122;SDS011;42426;46.104;19.656;2023-03-13T07:53:32;22.60;;;15.27;;
56122;SDS011;42426;46.104;19.656;2023-03-13T07:55:59;20.70;;;12.88;;
56122;SDS011;42426;46.104;19.656;2023-03-13T07:58:28;21.08;;;14.00;;
56122;SDS011;42426;46.104;19.656;2023-03-13T08:00:55;24.48;;;13.63;;
56122;SDS011;42426;46.104;19.656;2023-03-13T08:03:21;25.35;;;12.57;;
56122;SDS011;42426;46.104;19.656;2023-03-13T08:05:56;19.33;;;10.30;;
56122;SDS011;42426;46.104;19.656;2023-03-13T08:08:23;20.02;;;10.68;;
56122;SDS011;42426;46.104;19.656;2023-03-13T08:10:48;16.33;;;9.38;;
56122;SDS011;42426;46.104;19.656;2023-03-13T08:13:14;19.08;;;10.50;;
56122;SDS011;42426;46.104;19.656;2023-03-13T08:15:40;16.60;;;9.88;;
56122;SDS011;42426;46.104;19.656;2023-03-13T08:18:05;22.48;;;9.68;;
56122;SDS011;42426;46.104;19.656;2023-03-13T08:20:31;14.63;;;8.85;;
56122;SDS011;42426;46.104;19.656;2023-03-13T08:22:57;14.85;;;8.95;;
56122;SDS011;42426;46.104;19.656;2023-03-13T08:25:23;17.90;;;10.20;;
56122;SDS011;42426;46.104;19.656;2023-03-13T08:27:48;15.85;;;9.32;;
56122;SDS011;42426;46.104;19.656;2023-03-13T08:30:14;19.13;;;9.50;;
56122;SDS011;42426;46.104;19.656;2023-03-13T08:32:40;15.63;;;9.05;;
56122;SDS011;42426;46.104;19.656;2023-03-13T08:35:05;14.15;;;8.52;;
56122;SDS011;42426;46.104;19.656;2023-03-13T08:37:31;19.15;;;10.52;;
56122;SDS011;42426;46.104;19.656;2023-03-13T08:39:57;17.30;;;9.02;;
56122;SDS011;42426;46.104;19.656;2023-03-13T08:42:24;27.70;;;18.35;;
56122;SDS011;42426;46.104;19.656;2023-03-13T08:44:50;18.80;;;11.15;;
56122;SDS011;42426;46.104;19.656;2023-03-13T08:47:15;16.55;;;10.38;;
56122;SDS011;42426;46.104;19.656;2023-03-13T08:49:42;14.02;;;9.60;;
56122;SDS011;42426;46.104;19.656;2023-03-13T08:52:08;18.67;;;9.98;;
56122;SDS011;42426;46.104;19.656;2023-03-13T08:54:34;15.73;;;8.57;;
56122;SDS011;42426;46.104;19.656;2023-03-13T08:57:00;14.18;;;9.27;;
56122;SDS011;42426;46.104;19.656;2023-03-13T08:59:25;23.50;;;10.77;;
56122;SDS011;42426;46.104;19.656;2023-03-13T09:01:51;14.18;;;8.65;;
56122;SDS011;42426;46.104;19.656;2023-03-13T09:04:17;17.08;;;9.43;;
56122;SDS011;42426;46.104;19.656;2023-03-13T09:06:43;14.07;;;8.70;;
56122;SDS011;42426;46.104;19.656;2023-03-13T09:09:09;12.10;;;8.18;;
56122;SDS011;42426;46.104;19.656;2023-03-13T09:11:37;14.80;;;7.80;;
56122;SDS011;42426;46.104;19.656;2023-03-13T09:14:06;12.43;;;7.53;;
56122;SDS011;42426;46.104;19.656;2023-03-13T09:16:34;17.13;;;9.40;;
56122;SDS011;42426;46.104;19.656;2023-03-13T09:18:59;12.85;;;8.35;;
56122;SDS011;42426;46.104;19.656;2023-03-13T09:21:27;12.98;;;8.45;;
56122;SDS011;42426;46.104;19.656;2023-03-13T09:23:54;15.23;;;8.85;;
56122;SDS011;42426;46.104;19.656;2023-03-13T09:26:20;12.82;;;7.65;;
56122;SDS011;42426;46.104;19.656;2023-03-13T09:28:46;13.07;;;8.02;;
56122;SDS011;42426;46.104;19.656;2023-03-13T09:31:30;18.42;;;8.13;;
56122;SDS011;42426;46.104;19.656;2023-03-13T09:33:58;14.45;;;8.90;;
56122;SDS011;42426;46.104;19.656;2023-03-13T09:36:24;11.48;;;7.45;;
56122;SDS011;42426;46.104;19.656;2023-03-13T09:38:55;14.88;;;8.75;;
56122;SDS011;42426;46.104;19.656;2023-03-13T09:41:45;16.10;;;7.95;;
56122;SDS011;42426;46.104;19.656;2023-03-13T09:44:24;15.10;;;9.38;;
56122;SDS011;42426;46.104;19.656;2023-03-13T09:49:33;12.98;;;8.05;;
56122;SDS011;42426;46.104;19.656;2023-03-13T09:52:20;13.93;;;8.55;;
56122;SDS011;42426;46.104;19.656;2023-03-13T09:54:50;13.73;;;8.30;;
56122;SDS011;42426;46.104;19.656;2023-03-13T10:00:13;13.20;;;8.20;;
56122;SDS011;42426;46.104;19.656;2023-03-13T10:03:42;15.80;;;8.13;;
56122;SDS011;42426;46.104;19.656;2023-03-13T10:05:37;15.25;;;7.95;;
56122;SDS011;42426;46.104;19.656;2023-03-13T10:18:44;15.00;;;8.70;;
56122;SDS011;42426;46.104;19.656;2023-03-13T10:21:17;19.35;;;10.70;;
56122;SDS011;42426;46.104;19.656;2023-03-13T10:24:21;17.63;;;10.32;;
56122;SDS011;42426;46.104;19.656;2023-03-13T10:26:55;14.15;;;8.38;;
56122;SDS011;42426;46.104;19.656;2023-03-13T10:29:25;15.93;;;10.23;;
56122;SDS011;42426;46.104;19.656;2023-03-13T10:34:21;29.50;;;18.05;;
56122;SDS011;42426;46.104;19.656;2023-03-13T10:36:48;23.25;;;11.95;;
56122;SDS011;42426;46.104;19.656;2023-03-13T10:39:20;21.95;;;12.90;;
56122;SDS011;42426;46.104;19.656;2023-03-13T10:41:47;23.15;;;13.23;;
56122;SDS011;42426;46.104;19.656;2023-03-13T10:44:16;20.15;;;12.75;;
56122;SDS011;42426;46.104;19.656;2023-03-13T10:46:44;17.83;;;12.13;;
56122;SDS011;42426;46.104;19.656;2023-03-13T10:49:19;19.15;;;11.65;;
56122;SDS011;42426;46.104;19.656;2023-03-13T10:51:50;24.90;;;14.55;;
56122;SDS011;42426;46.104;19.656;2023-03-13T10:54:24;25.90;;;14.95;;
56122;SDS011;42426;46.104;19.656;2023-03-13T10:59:54;13.60;;;8.20;;
56122;SDS011;42426;46.104;19.656;2023-03-13T11:04:56;15.23;;;8.25;;
56122;SDS011;42426;46.104;19.656;2023-03-13T11:07:36;17.45;;;8.43;;
56122;SDS011;42426;46.104;19.656;2023-03-13T11:10:24;15.93;;;9.20;;
56122;SDS011;42426;46.104;19.656;2023-03-13T11:12:54;12.30;;;8.07;;
56122;SDS011;42426;46.104;19.656;2023-03-13T11:15:25;15.57;;;9.07;;
56122;SDS011;42426;46.104;19.656;2023-03-13T11:17:56;12.57;;;7.72;;
56122;SDS011;42426;46.104;19.656;2023-03-13T11:20:25;18.50;;;9.13;;
56122;SDS011;42426;46.104;19.656;2023-03-13T11:28:25;14.65;;;8.35;;
56122;SDS011;42426;46.104;19.656;2023-03-13T11:36:00;14.48;;;8.60;;
56122;SDS011;42426;46.104;19.656;2023-03-13T11:38:34;14.35;;;8.38;;
56122;SDS011;42426;46.104;19.656;2023-03-13T12:00:30;16.58;;;9.40;;
56122;SDS011;42426;46.104;19.656;2023-03-13T12:03:04;14.70;;;8.60;;
56122;SDS011;42426;46.104;19.656;2023-03-13T12:05:50;17.27;;;8.60;;
56122;SDS011;42426;46.104;19.656;2023-03-13T12:08:41;20.98;;;9.07;;
56122;SDS011;42426;46.104;19.656;2023-03-13T12:13:41;16.33;;;8.32;;
56122;SDS011;42426;46.104;19.656;2023-03-13T12:16:15;14.43;;;8.60;;
56122;SDS011;42426;46.104;19.656;2023-03-13T12:18:45;13.85;;;8.55;;
56122;SDS011;42426;46.104;19.656;2023-03-13T12:26:21;19.08;;;9.05;;
56122;SDS011;42426;46.104;19.656;2023-03-13T12:32:13;19.10;;;9.52;;
56122;SDS011;42426;46.104;19.656;2023-03-13T12:34:54;13.85;;;9.02;;
56122;SDS011;42426;46.104;19.656;2023-03-13T12:43:31;20.85;;;9.13;;
56122;SDS011;42426;46.104;19.656;2023-03-13T12:59:58;18.75;;;8.10;;
56122;SDS011;42426;46.104;19.656;2023-03-13T13:02:29;12.02;;;8.80;;
56122;SDS011;42426;46.104;19.656;2023-03-13T13:04:56;13.20;;;8.52;;
56122;SDS011;42426;46.104;19.656;2023-03-13T13:12:41;128.52;;;67.85;;
56122;SDS011;42426;46.104;19.656;2023-03-13T13:23:29;10.70;;;7.28;;
56122;SDS011;42426;46.104;19.656;2023-03-13T13:28:50;14.70;;;7.03;;
56122;SDS011;42426;46.104;19.656;2023-03-13T13:34:53;17.23;;;7.75;;
56122;SDS011;42426;46.104;19.656;2023-03-13T13:39:46;14.18;;;8.02;;
56122;SDS011;42426;46.104;19.656;2023-03-13T13:44:56;11.10;;;7.50;;
56122;SDS011;42426;46.104;19.656;2023-03-13T13:47:27;12.77;;;7.22;;
56122;SDS011;42426;46.104;19.656;2023-03-13T13:49:55;15.23;;;7.53;;
56122;SDS011;42426;46.104;19.656;2023-03-13T13:52:39;16.05;;;7.57;;
56122;SDS011;42426;46.104;19.656;2023-03-13T13:57:51;13.75;;;7.93;;
56122;SDS011;42426;46.104;19.656;2023-03-13T14:00:49;9.30;;;7.13;;
56122;SDS011;42426;46.104;19.656;2023-03-13T14:03:28;12.63;;;7.97;;
56122;SDS011;42426;46.104;19.656;2023-03-13T14:05:58;17.30;;;9.70;;
56122;SDS011;42426;46.104;19.656;2023-03-13T14:08:30;16.10;;;8.43;;
56122;SDS011;42426;46.104;19.656;2023-03-13T14:13:38;11.77;;;7.43;;
56122;SDS011;42426;46.104;19.656;2023-03-13T14:16:23;16.10;;;8.05;;
56122;SDS011;42426;46.104;19.656;2023-03-13T14:18:51;14.88;;;7.65;;
56122;SDS011;42426;46.104;19.656;2023-03-13T14:21:21;31.50;;;10.27;;
56122;SDS011;42426;46.104;19.656;2023-03-13T14:23:48;13.27;;;8.43;;
56122;SDS011;42426;46.104;19.656;2023-03-13T14:26:25;16.33;;;9.00;;
56122;SDS011;42426;46.104;19.656;2023-03-13T14:28:54;17.52;;;8.35;;
56122;SDS011;42426;46.104;19.656;2023-03-13T14:31:34;18.48;;;7.97;;
56122;SDS011;42426;46.104;19.656;2023-03-13T14:34:02;12.98;;;8.23;;
56122;SDS011;42426;46.104;19.656;2023-03-13T14:36:44;20.23;;;11.32;;
56122;SDS011;42426;46.104;19.656;2023-03-13T14:39:21;17.42;;;9.70;;
56122;SDS011;42426;46.104;19.656;2023-03-13T14:42:05;15.88;;;9.20;;
56122;SDS011;42426;46.104;19.656;2023-03-13T14:47:05;14.32;;;9.65;;
56122;SDS011;42426;46.104;19.656;2023-03-13T14:49:33;14.98;;;8.25;;
56122;SDS011;42426;46.104;19.656;2023-03-13T14:52:02;14.20;;;8.73;;
56122;SDS011;42426;46.104;19.656;2023-03-13T14:57:04;15.07;;;10.02;;
56122;SDS011;42426;46.104;19.656;2023-03-13T14:59:37;18.92;;;9.98;;
56122;SDS011;42426;46.104;19.656;2023-03-13T15:07:46;12.15;;;7.72;;
56122;SDS011;42426;46.104;19.656;2023-03-13T15:10:22;14.13;;;8.95;;
56122;SDS011;42426;46.104;19.656;2023-03-13T15:12:55;15.18;;;7.70;;
56122;SDS011;42426;46.104;19.656;2023-03-13T15:15:21;19.48;;;9.25;;
56122;SDS011;42426;46.104;19.656;2023-03-13T15:17:47;16.77;;;9.65;;
56122;SDS011;42426;46.104;19.656;2023-03-13T15:20:15;18.75;;;8.63;;
56122;SDS011;42426;46.104;19.656;2023-03-13T15:22:42;17.63;;;10.25;;
56122;SDS011;42426;46.104;19.656;2023-03-13T15:25:14;16.80;;;9.05;;
56122;SDS011;42426;46.104;19.656;2023-03-13T15:27:44;15.13;;;9.48;;
56122;SDS011;42426;46.104;19.656;2023-03-13T15:30:20;14.85;;;9.32;;
56122;SDS011;42426;46.104;19.656;2023-03-13T15:32:49;11.18;;;8.30;;
56122;SDS011;42426;46.104;19.656;2023-03-13T15:37:47;15.60;;;7.85;;
56122;SDS011;42426;46.104;19.656;2023-03-13T15:40:13;17.08;;;8.35;;
56122;SDS011;42426;46.104;19.656;2023-03-13T15:42:40;15.70;;;8.50;;
56122;SDS011;42426;46.104;19.656;2023-03-13T15:45:06;13.73;;;7.43;;
56122;SDS011;42426;46.104;19.656;2023-03-13T15:47:32;11.85;;;7.78;;
56122;SDS011;42426;46.104;19.656;2023-03-13T15:49:58;9.60;;;6.82;;
56122;SDS011;42426;46.104;19.656;2023-03-13T15:52:23;12.27;;;7.47;;
56122;SDS011;42426;46.104;19.656;2023-03-13T15:54:49;10.45;;;6.22;;
56122;SDS011;42426;46.104;19.656;2023-03-13T15:57:20;13.43;;;7.63;;
56122;SDS011;42426;46.104;19.656;2023-03-13T15:59:48;11.98;;;7.60;;
56122;SDS011;42426;46.104;19.656;2023-03-13T16:02:20;13.90;;;8.70;;
56122;SDS011;42426;46.104;19.656;2023-03-13T16:04:47;13.30;;;7.60;;
56122;SDS011;42426;46.104;19.656;2023-03-13T16:07:16;15.70;;;7.38;;
56122;SDS011;42426;46.104;19.656;2023-03-13T16:09:45;13.75;;;7.45;;
56122;SDS011;42426;46.104;19.656;2023-03-13T16:12:11;12.15;;;8.30;;
56122;SDS011;42426;46.104;19.656;2023-03-13T16:14:37;12.18;;;7.60;;
56122;SDS011;42426;46.104;19.656;2023-03-13T16:17:14;21.38;;;7.82;;
56122;SDS011;42426;46.104;19.656;2023-03-13T16:19:42;10.07;;;7.15;;
56122;SDS011;42426;46.104;19.656;2023-03-13T16:22:09;10.45;;;6.80;;
56122;SDS011;42426;46.104;19.656;2023-03-13T16:24:35;11.30;;;6.80;;
56122;SDS011;42426;46.104;19.656;2023-03-13T16:27:01;11.27;;;7.85;;
56122;SDS011;42426;46.104;19.656;2023-03-13T16:29:26;10.98;;;6.80;;
56122;SDS011;42426;46.104;19.656;2023-03-13T16:31:52;10.02;;;6.65;;
56122;SDS011;42426;46.104;19.656;2023-03-13T16:34:18;9.20;;;5.88;;
56122;SDS011;42426;46.104;19.656;2023-03-13T16:36:43;10.88;;;6.80;;
56122;SDS011;42426;46.104;19.656;2023-03-13T16:39:10;10.35;;;6.40;;
56122;SDS011;42426;46.104;19.656;2023-03-13T16:41:39;10.65;;;6.80;;
56122;SDS011;42426;46.104;19.656;2023-03-13T16:44:05;12.57;;;6.95;;
56122;SDS011;42426;46.104;19.656;2023-03-13T16:46:35;15.18;;;7.63;;